• Join FlightAware (Why Join?)
  • Login
  • US Flag 
05:49PM EDT


 

Airport Tracker/Info


-or-


 

Live Flight TrackerFlight Track Log ✈ VOZ1485 ✈ 30-Apr-2013 ✈ YPPH / PER - YBRM / BME

Flight Track Log - Related Links

Times and Time Zones

All times are in EDT time to prevent confusion due to time zone crossing. See the VOZ1485 flight status page for this flight to view local times or setup timezone preferences in your user account.

Time Position Orientation Groundspeed Altitude Reporting Facility
EDT Latitude Longitude Course Direction KTS MPH feet Rate Location/Type
12:14AM -31.9340 115.9730 360° North 153 176  Level FlightAware
12:15AM -31.9220 115.9950 57° Northeast 156 180 1,200 2,400 Climbing FlightAware
12:15AM -31.9170 116.0070 64° Northeast 161 185 1,800 1,320 Climbing FlightAware
12:15AM -31.9080 116.0240 58° Northeast 195 224 2,000 1,620 Climbing FlightAware
12:16AM -31.8913 116.0565 58° Northeast 198 228 3,200 1,860 Climbing Aus ATC (RADAR)
12:16AM -31.8920 116.0550 58° Northeast 205 236 3,100 1,200 Descending FlightAware
12:16AM -31.8780 116.0830 60° Northeast 240 276 3,800 1,500 Climbing FlightAware
12:17AM -31.8580 116.1240 60° Northeast 295 339 4,500 2,160 Climbing FlightAware
12:17AM -31.8480 116.1670 75° East 303 349 6,000 3,240 Climbing FlightAware
12:18AM -31.8400 116.2100 78° East 309 356 7,500 3,120 Climbing FlightAware
12:18AM -31.8300 116.2630 77° East 320 368 8,900 2,520 Climbing FlightAware
12:19AM -31.8170 116.3290 77° East 339 390 10,500 2,460 Climbing FlightAware
12:19AM -31.8010 116.4090 77° East 348 400 12,400 2,520 Climbing FlightAware
12:20AM -31.7850 116.4890 77° East 365 420 14,100 2,460 Climbing FlightAware
12:21AM -31.7690 116.5680 77° East 373 429 15,700 2,400 Climbing FlightAware
12:21AM -31.7523 116.6114 77° East 358 412 16,600 1,560 Climbing Aus ATC (RADAR)
12:21AM -31.7440 116.6210 77° East 378 435 16,500 720 Descending FlightAware
12:22AM -31.6970 116.6590 35° Northeast 393 452 17,100 1,560 Climbing FlightAware
12:22AM -31.6410 116.6880 24° Northeast 401 461 18,200 1,920 Climbing FlightAware
12:23AM -31.5917 116.7122 24° Northeast 401 461 19,100 3,060 Climbing Aus ATC (RADAR)
12:23AM -31.5658 116.7249 23° Northeast 402 463 20,300 4,680 Climbing Aus ATC (RADAR)
12:23AM -31.5610 116.7280 23° Northeast 381 438 20,600 3,420 Climbing FlightAware
12:24AM -31.5098 116.7532 23° Northeast 372 428 22,300 2,220 Climbing Aus ATC (RADAR)
12:24AM -31.4880 116.7640 23° Northeast 388 447 22,300 1,080 Level FlightAware
12:25AM -31.4220 116.7970 23° Northeast 401 461 23,300 1,740 Climbing FlightAware
12:25AM -31.3489 116.8338 23° Northeast 402 463 24,700 1,860 Climbing Aus ATC (RADAR)
12:25AM -31.3440 116.8360 23° Northeast 409 471 24,700 1,380 Level FlightAware
12:26AM -31.2450 116.8860 23° Northeast 421 484 26,100 2,220 Climbing FlightAware
12:27AM -31.1850 116.9160 23° Northeast 385 443 28,300 1,740 Climbing FlightAware
12:28AM -31.1110 116.9520 23° Northeast 407 468 28,600 360 Climbing FlightAware
12:28AM -31.0617 116.9771 23° Northeast 419 482 28,700 120 Climbing Aus ATC (RADAR)
12:28AM -31.0340 116.9900 23° Northeast 441 507 28,700 480 Level FlightAware
12:29AM -30.9952 117.0093 23° Northeast 441 507 29,000 1,020 Climbing Aus ATC (RADAR)
12:29AM -30.9580 117.0280 23° Northeast 442 509 29,400 1,080 Climbing FlightAware
12:29AM -30.8896 117.0620 23° Northeast 452 520 30,000 900 Climbing Aus ATC (RADAR)
12:30AM -30.8850 117.0640 23° Northeast 458 527 30,000 840 Level FlightAware
12:30AM -30.8207 117.0961 23° Northeast 459 528 30,500 900 Climbing Aus ATC (RADAR)
12:30AM -30.7860 117.1130 23° Northeast 470 541 30,700 720 Climbing FlightAware
12:31AM -30.7099 117.1505 23° Northeast 473 544 31,200 780 Climbing Aus ATC (RADAR)
12:31AM -30.7010 117.1550 23° Northeast 470 541 31,300 720 Climbing FlightAware
12:32AM -30.6180 117.1950 23° Northeast 485 558 31,800 720 Climbing FlightAware
12:33AM -30.5220 117.2420 23° Northeast 491 565 32,400 960 Climbing FlightAware
12:33AM -30.4822 117.2625 23° Northeast 488 562 32,800 1,200 Climbing Aus ATC (RADAR)
12:33AM -30.4505 117.2774 22° Northeast 489 563 33,000 720 Climbing Aus ATC (RADAR)
12:33AM -30.4390 117.2830 22° Northeast 493 567 33,100 1,020 Climbing FlightAware
12:34AM -30.3767 117.3130 22° Northeast 491 565 33,600 1,020 Climbing Aus ATC (RADAR)
12:34AM -30.3420 117.3300 22° Northeast 491 565 33,900 1,200 Climbing FlightAware
12:34AM -30.2726 117.3642 22° Northeast 486 559 34,600 1,020 Climbing Aus ATC (RADAR)
12:35AM -30.2630 117.3690 22° Northeast 487 560 34,600 1,020 Level FlightAware
12:35AM -30.1899 117.4053 22° Northeast 486 559 35,300 1,020 Climbing Aus ATC (RADAR)
12:35AM -30.1730 117.4130 22° Northeast 485 558 35,300 540 Level FlightAware
12:36AM -30.0840 117.4560 23° Northeast 488 562 35,800 660 Climbing FlightAware
12:37AM -30.0110 117.4910 23° Northeast 488 562 36,200 540 Climbing FlightAware
12:37AM -29.9120 117.5390 23° Northeast 490 564 36,600 660 Climbing FlightAware
12:38AM -29.8559 117.5657 23° Northeast 492 566 37,000 660 Climbing Aus ATC (RADAR)
12:38AM -29.8245 117.5808 23° Northeast 492 566 37,000 -300 Level Aus ATC (RADAR)
12:38AM -29.8320 117.5780 23° Northeast 487 560 36,900 120 Descending FlightAware
12:39AM -29.7509 117.6175 23° Northeast 495 570 37,100 120 Climbing Aus ATC (RADAR)
12:39AM -29.7360 117.6240 23° Northeast 503 579 37,000 -120 Descending FlightAware
12:39AM -29.6510 117.6650 23° Northeast 505 581 37,000 60 Level FlightAware
12:40AM -29.5657 117.7068 23° Northeast 513 590 37,100  Climbing Aus ATC (RADAR)
12:40AM -29.5510 117.7130 23° Northeast 504 580 37,000  Descending FlightAware
12:41AM -29.4454 117.7640 23° Northeast 512 589 37,100 60 Climbing Aus ATC (RADAR)
12:41AM -29.4013 117.7847 22° Northeast 513 590 37,100 -240 Level Aus ATC (RADAR)
12:41AM -29.4030 117.7840 22° Northeast 503 579 37,000 -120 Descending FlightAware
12:43AM -29.2470 117.8590 23° Northeast 509 586 37,000  Level FlightAware
12:43AM -29.1680 117.8960 22° Northeast 508 585 37,000  Level FlightAware
12:44AM -29.0870 117.9350 23° Northeast 504 580 37,000 60 Level FlightAware
12:44AM -29.0192 117.9635 23° Northeast 510 587 37,100  Climbing Aus ATC (RADAR)
12:45AM -28.9760 117.9880 23° Northeast 504 580 37,000 -120 Descending FlightAware
12:45AM -28.8710 118.0370 22° Northeast 503 579 37,000 60 Level FlightAware
12:46AM -28.8121 118.0621 22° Northeast 508 585 37,100 120 Climbing Aus ATC (RADAR)
12:46AM -28.7787 118.0759 20° North 508 585 37,100 -240 Level Aus ATC (RADAR)
12:46AM -28.7710 118.0840 20° North 509 586 37,000  Descending FlightAware
12:47AM -28.7032 118.1129 20° North 507 583 37,100  Climbing Aus ATC (RADAR)
12:47AM -28.6960 118.1180 20° North 509 586 37,000 -120 Descending FlightAware
12:48AM -28.6040 118.1610 22° Northeast 509 586 37,000 480 Level FlightAware
12:48AM -28.5079 118.2070 22° Northeast 510 587 37,600  Climbing Aus ATC (RADAR)
12:48AM -28.5290 118.1950 22° Northeast 509 586 37,000  Descending FlightAware
12:49AM -28.4290 118.2405 22° Northeast 515 593 37,600  Climbing Aus ATC (RADAR)
12:49AM -28.4550 118.2290 22° Northeast 509 586 37,000 -660 Descending FlightAware
12:50AM -28.3810 118.2630 22° Northeast 509 586 37,000 480 Level FlightAware
12:50AM -28.2312 118.3307 22° Northeast 512 589 37,600  Climbing Aus ATC (RADAR)
12:50AM -28.3070 118.2980 22° Northeast 509 586 37,000  Descending FlightAware
12:51AM -28.1475 118.3770 22° Northeast 509 586 37,600  Climbing Aus ATC (RADAR)
12:51AM -28.2140 118.3400 22° Northeast 509 586 37,000 -600 Descending FlightAware
12:52AM -28.1400 118.3740 22° Northeast 509 586 37,000  Level FlightAware
12:53AM -28.0650 118.4080 22° Northeast 509 586 37,000  Level FlightAware
12:53AM -27.8877 118.4911 203° Southwest 37,000  Level Aus ATC (Calculated)
12:53AM -27.9910 118.4420 22° Northeast 509 586 37,000  Level FlightAware
12:54AM -27.7470 118.5527 202° Southwest 37,000  Level Aus ATC (Calculated)
12:54AM -27.9170 118.4760 22° Northeast 509 586 37,000  Level FlightAware
12:55AM -27.8240 118.5180 22° Northeast 509 586 37,000  Level FlightAware
12:55AM -27.7500 118.5520 22° Northeast 509 586 37,000  Level FlightAware
12:57AM -27.2541 118.7670 21° North 37,000 60 Level Aus ATC (Calculated)
12:58AM -27.4970 118.6621 21° North  Level FlightAware Approximate
12:58AM -27.1925 118.7937 21° North 37,000  Level Aus ATC (Calculated)
12:58AM -27.1925 118.7937 21° North 37,000 60 Level Aus ATC (Calculated)
01:00AM -26.9630 118.8926 21° North  Level FlightAware Approximate
01:01AM -26.8443 118.9437 21° North  Level FlightAware Approximate
01:01AM -26.6971 119.0054 21° North 37,000  Level Aus ATC (Calculated)
01:02AM -26.7256 118.9946 21° North  Level FlightAware Approximate
01:03AM -26.6699 119.0181 21° North  Level FlightAware Approximate
01:04AM -26.5511 119.0685 21° North  Level FlightAware Approximate
01:05AM -26.4321 119.1188 21° North  Level FlightAware Approximate
01:06AM -26.3132 119.1690 21° North  Level FlightAware Approximate
01:06AM -26.0330 119.2860 22° Northeast 37,000  Level Aus ATC (Calculated)
01:07AM -26.1943 119.2190 21° North  Level FlightAware Approximate
01:08AM -25.8903 119.3459 21° North  Level FlightAware Approximate
01:08AM -25.8369 119.3743 21° North 519 597 37,800  Level Aus ATC (RADAR)
01:09AM -25.8043 119.3868 19° North 515 593 37,800  Level Aus ATC (RADAR)
01:09AM -25.6869 119.4333 20° North 494 568 37,800  Level Aus ATC (RADAR)
01:10AM -25.5894 119.4737 20° North 498 573 37,800  Level Aus ATC (RADAR)
01:11AM -25.5126 119.5067 21° North 502 578 37,800  Level Aus ATC (RADAR)
01:12AM -25.3821 119.5607 21° North 502 578 37,800  Level Aus ATC (RADAR)
01:13AM -25.1980 119.6366 20° North 497 572 37,800  Level Aus ATC (RADAR)
01:13AM -25.1654 119.6504 21° North 498 573 37,800  Level Aus ATC (RADAR)
01:14AM -25.0911 119.6801 20° North 491 565 37,800  Level Aus ATC (RADAR)
01:15AM -24.9610 119.7337 20° North 500 575 37,800  Level Aus ATC (RADAR)
01:16AM -24.8837 119.7661 21° North 505 581 37,800  Level Aus ATC (RADAR)
01:17AM -24.7669 119.8128 20° North 492 566 37,800  Level Aus ATC (RADAR)
01:17AM -24.6909 119.8440 20° North 496 571 37,800  Level Aus ATC (RADAR)
01:18AM -24.5182 119.9146 20° North 491 565 37,800  Level Aus ATC (RADAR)
01:19AM -24.4847 119.9286 21° North 498 573 37,800  Level Aus ATC (RADAR)
01:19AM -24.4093 119.9593 20° North 497 572 37,800  Level Aus ATC (RADAR)
01:20AM -24.2674 120.0169 20° North 501 577 37,800  Level Aus ATC (RADAR)
01:21AM -24.1927 120.0473 20° North 497 572 37,800  Level Aus ATC (RADAR)
01:22AM -24.0837 120.0914 20° North 499 574 37,800  Level Aus ATC (RADAR)
01:23AM -23.9422 120.1487 20° North 499 574 37,800  Level Aus ATC (RADAR)
01:24AM -23.8529 120.1847 20° North 506 582 37,800  Level Aus ATC (RADAR)
01:24AM -23.7321 120.2333 20° North 510 587 37,800  Level Aus ATC (RADAR)
01:25AM -23.6451 120.2684 20° North 505 581 37,800  Level Aus ATC (RADAR)
01:26AM -23.5599 120.3033 21° North 494 568 37,800  Level Aus ATC (RADAR)
01:27AM -23.4245 120.3566 20° North 511 588 37,800  Level Aus ATC (RADAR)
01:27AM -23.3506 120.3873 21° North 499 574 37,800  Level Aus ATC (RADAR)
01:29AM -23.1831 120.4535 20° North 506 582 37,800  Level Aus ATC (RADAR)
01:29AM -23.1506 120.4667 20° North 502 578 37,800  Level Aus ATC (RADAR)
01:29AM -23.0733 120.4974 20° North 504 580 37,800  Level Aus ATC (RADAR)
01:30AM -22.9411 120.5498 20° North 504 580 37,800  Level Aus ATC (RADAR)
01:31AM -22.8646 120.5805 20° North 503 579 37,800  Level Aus ATC (RADAR)
01:32AM -22.7335 120.6329 20° North 501 577 37,800  Level Aus ATC (RADAR)
01:33AM -22.5768 120.6936 20° North 509 586 37,800  Level Aus ATC (RADAR)
01:34AM -22.4895 120.7282 20° North 504 580 37,800  Level Aus ATC (RADAR)
01:34AM -22.4569 120.7410 20° North 501 577 37,800  Level Aus ATC (RADAR)
01:35AM -22.3828 120.7713 21° North 493 567 37,800  Level Aus ATC (RADAR)
01:36AM -22.2523 120.8217 20° North 492 566 37,800  Level Aus ATC (RADAR)
01:36AM -22.1772 120.8512 20° North 490 564 37,800 -60 Level Aus ATC (RADAR)
01:38AM -22.0159 120.9141 20° North 490 564 37,700 -60 Descending Aus ATC (RADAR)
01:39AM -21.8344 120.9862 20° North 489 563 37,700  Level Aus ATC (RADAR)
01:39AM -21.8017 120.9986 20° North 489 563 37,700  Level Aus ATC (RADAR)
01:39AM -21.7880 121.0040 20° North 493 567 37,700  Level FlightAware
01:40AM -21.7152 121.0317 20° North 490 564 37,700  Level Aus ATC (RADAR)
01:40AM -21.6760 121.0480 20° North 492 566 37,700  Level FlightAware
01:41AM -21.5975 121.0776 20° North 489 563 37,700  Level Aus ATC (RADAR)
01:41AM -21.6090 121.0740 20° North 492 566 37,700  Level FlightAware
01:41AM -21.5219 121.1063 20° North 490 564 37,700  Level Aus ATC (RADAR)
01:41AM -21.5360 121.1030 20° North 492 566 37,700  Level FlightAware
01:42AM -21.4450 121.1380 20° North 492 566 37,700  Level FlightAware
01:43AM -21.3720 121.1670 20° North 492 566 37,700  Level FlightAware
01:44AM -21.3000 121.1950 20° North 492 566 37,700  Level FlightAware
01:44AM -21.2270 121.2240 20° North 492 566 37,700  Level FlightAware
01:45AM -21.1540 121.2520 20° North 492 566 37,700  Level FlightAware
01:46AM -21.0630 121.2870 20° North 492 566 37,700  Level FlightAware
01:46AM -20.9028 121.3473 198° South 37,000  Descending Aus ATC (Calculated)
01:46AM -20.9910 121.3160 21° North 492 566 37,700 840 Climbing FlightAware
01:47AM -20.9180 121.3440 21° North 492 566 37,700  Level FlightAware
01:48AM -20.8450 121.3720 20° North 492 566 37,700  Level FlightAware
01:48AM -20.7720 121.4010 20° North 492 566 37,700  Level FlightAware
01:49AM -20.6810 121.4360 20° North 492 566 37,700  Level FlightAware
01:50AM -20.4260 121.5308 199° South 37,000  Descending Aus ATC (Calculated)
01:50AM -20.6090 121.4640 20° North 492 566 37,700 4,620 Climbing FlightAware
01:51AM -20.2405 121.6019 360° North 37,000 -480 Descending Aus ATC (Calculated)
01:51AM -20.2405 121.6019 15° North 37,000  Level Aus ATC (Calculated)
01:53AM -20.1155 121.6367 15° North  Level Estimated
01:53AM -20.0716 121.6664 20° North 9,300  Level Aus ATC (Calculated)
01:54AM -19.9695 121.7053 20° North 9,300  Level Aus ATC (Calculated)
01:54AM -19.8738 121.7417 360° North 9,300  Level Aus ATC (Calculated)
01:54AM -19.8738 121.7417 14° North 9,300  Level Aus ATC (Calculated)
01:56AM -19.7482 121.7740 14° North  Level Estimated
01:56AM -19.6944 121.8099 20° North 9,300  Level Aus ATC (Calculated)
01:57AM -19.6159 121.8397 North 9,300  Level Aus ATC (Calculated)
01:58AM -19.5023 121.8566 13° North  Level Estimated
01:59AM -19.4008 121.8906 13° North  Level Estimated
01:59AM -19.3950 121.9233 358° North 9,300  Level Aus ATC (Calculated)
02:00AM -19.2767 121.9199 13° North  Level Estimated
02:00AM -19.1557 122.0136 263° West 9,300  Level Aus ATC (Calculated)
02:01AM -19.1604 121.9736 11° North  Level Estimated
02:02AM -19.0283 122.0367 10° North  Level Estimated
02:02AM -19.0660 122.0474 North 9,300  Level Aus ATC (Calculated)
02:04AM -18.8168 122.0886 North  Level Estimated
02:05AM -18.6912 122.1093 North  Level Estimated
02:05AM -18.6732 122.1949 North 9,300  Level Aus ATC (Calculated)
02:07AM -18.4214 122.2077 North  Level Estimated
02:07AM -18.3761 122.2771 285° West 500  Level Aus ATC (Calculated)
02:07AM -18.3761 122.2771 324° Northwest 500  Level Aus ATC (Calculated)
02:08AM -18.2944 122.2141 North  Level Estimated
02:09AM -18.2096 122.2595 354° North  Level Estimated
02:10AM -18.0830 122.2462 354° North  Level Estimated
02:10AM -18.1919 122.2592 354° North 500  Level Aus ATC (Calculated)
02:11AM -17.9565 122.2329 354° North  Level Estimated
02:12AM -18.0233 122.2404 354° North  Level Estimated
02:13AM -17.9447 122.2317 354° North  Level Estimated
02:13AM -17.9463 122.2353 295° West 500  Level Aus ATC (Calculated)
02:14AM -17.9447 122.2317 235° Southwest  Level Estimated
02:15AM -17.9447 122.2317 235° Southwest  Level Estimated
02:16AM -17.9447 122.2317 295° West  Level Estimated
02:17AM -17.9447 122.2317 235° Southwest  Level Estimated
02:18AM -17.9447 122.2317 235° Southwest  Level Estimated
02:19AM -17.9447 122.2317 235° Southwest  Level Estimated
02:20AM -17.9447 122.2317 235° Southwest  Level Estimated
02:21AM -17.9447 122.2317 235° Southwest  Level Estimated
02:22AM -17.9447 122.2317 235° Southwest  Level Estimated
02:23AM -17.9447 122.2317 235° Southwest  Level Estimated
02:24AM -17.9447 122.2317 235° Southwest  Level Estimated
02:25AM -17.9447 122.2317 235° Southwest  Level Estimated
02:26AM -17.9447 122.2317 235° Southwest  Level Estimated
02:27AM -17.9447 122.2317 235° Southwest  Level Estimated
02:28AM -17.9447 122.2317 235° Southwest  Level Estimated
02:29AM -17.9447 122.2317 235° Southwest  Level Estimated
02:30AM -17.9447 122.2317 235° Southwest  Level Estimated
02:31AM -17.9447 122.2317 235° Southwest  Level Estimated